Time;durP1;ratioP1;P1;durP2;ratioP2;P2;SDS_P1;SDS_P2;PMS_P1;PMS_P2;Temp;Humidity;BMP_temperature;BMP_pressure;BME280_temperature;BME280_humidity;BME280_pressure;Samples;Min_cycle;Max_cycle;Signal;HPM_P1;HPM_P2
2023/01/13 00:01:10;;;;;;;16.27;3.13;;;9.90;99.90;;;;;;4976104;28;20049;-65
2023/01/13 00:03:35;;;;;;;23.20;3.55;;;9.80;99.90;;;;;;4988181;28;20039;-64
2023/01/13 00:06:01;;;;;;;21.60;3.78;;;9.90;99.90;;;;;;4978362;28;20670;-65
2023/01/13 00:08:27;;;;;;;16.23;3.88;;;9.80;99.90;;;;;;4972456;28;20506;-65
2023/01/13 00:10:53;;;;;;;19.33;3.03;;;9.80;99.90;;;;;;4975169;28;20040;-65
2023/01/13 00:13:25;;;;;;;20.50;3.72;;;9.70;99.90;;;;;;4981330;28;20097;-64
2023/01/13 00:16:06;;;;;;;21.13;3.72;;;9.70;99.90;;;;;;4989643;28;20113;-65
2023/01/13 00:18:32;;;;;;;17.38;3.15;;;9.60;99.90;;;;;;4976912;28;20140;-65
2023/01/13 00:21:02;;;;;;;18.70;3.42;;;9.50;99.90;;;;;;4987286;28;20034;-63
2023/01/13 00:23:29;;;;;;;22.50;3.95;;;9.40;99.90;;;;;;4990322;28;20038;-65
2023/01/13 00:26:00;;;;;;;16.48;3.70;;;9.40;99.90;;;;;;4987149;28;20491;-65
2023/01/13 00:28:26;;;;;;;;;;;9.30;99.90;;;;;;4984199;28;20042;-63
2023/01/13 00:30:52;;;;;;;20.52;3.10;;;9.20;99.90;;;;;;4990176;28;20349;-64
2023/01/13 00:33:18;;;;;;;22.08;3.33;;;9.20;99.90;;;;;;4994374;28;20473;-62
2023/01/13 00:35:44;;;;;;;18.42;3.13;;;9.20;99.90;;;;;;4981152;28;20493;-65
2023/01/13 00:38:09;;;;;;;21.10;2.97;;;9.20;99.90;;;;;;4990224;28;20054;-65
2023/01/13 00:40:35;;;;;;;19.15;2.72;;;9.20;99.90;;;;;;4995613;28;20042;-65
2023/01/13 00:45:44;;;;;;;19.60;3.95;;;9.00;99.90;;;;;;4990142;28;20119;-65
2023/01/13 00:48:10;;;;;;;18.58;3.45;;;9.10;99.90;;;;;;4994378;28;20649;-64
2023/01/13 00:50:36;;;;;;;19.23;3.03;;;9.00;99.90;;;;;;4989141;28;20038;-65
2023/01/13 00:53:01;;;;;;;24.45;3.90;;;9.00;99.90;;;;;;4991440;28;20117;-65
2023/01/13 00:55:30;;;;;;;24.02;3.40;;;8.90;99.90;;;;;;4986380;28;20125;-63
2023/01/13 00:58:02;;;;;;;20.25;3.35;;;9.00;99.90;;;;;;4991292;28;20046;-65
2023/01/13 01:00:31;;;;;;;15.07;3.25;;;9.00;99.90;;;;;;4981902;28;20041;-65
2023/01/13 01:02:57;;;;;;;19.52;2.90;;;9.00;99.90;;;;;;4992987;28;20042;-65
2023/01/13 01:05:22;;;;;;;28.83;3.85;;;8.90;99.90;;;;;;4994752;28;20046;-65
2023/01/13 01:07:48;;;;;;;22.40;3.17;;;8.90;99.90;;;;;;4980991;28;20049;-64
2023/01/13 01:10:14;;;;;;;23.77;4.05;;;8.90;99.90;;;;;;4989920;28;20121;-65
2023/01/13 01:12:39;;;;;;;17.73;3.42;;;8.90;99.90;;;;;;4984406;28;20404;-64
2023/01/13 01:15:08;;;;;;;20.50;3.58;;;8.90;99.90;;;;;;4985667;28;20102;-65
2023/01/13 01:17:37;;;;;;;16.15;3.10;;;9.00;99.90;;;;;;4978781;28;20078;-65
2023/01/13 01:20:03;;;;;;;15.02;2.92;;;9.00;99.90;;;;;;4959321;28;20038;-65
2023/01/13 01:22:29;;;;;;;18.00;3.35;;;9.00;99.90;;;;;;4988805;28;20437;-65
2023/01/13 01:24:55;;;;;;;16.90;3.38;;;9.00;99.90;;;;;;4982261;28;20038;-65
2023/01/13 01:27:20;;;;;;;15.93;2.80;;;9.00;99.90;;;;;;4991306;28;20085;-65
2023/01/13 01:29:46;;;;;;;24.85;4.03;;;9.00;99.90;;;;;;4992504;28;20477;-65
2023/01/13 01:32:12;;;;;;;17.77;3.90;;;9.10;99.90;;;;;;4987549;28;20039;-63
2023/01/13 01:34:40;;;;;;;16.17;3.78;;;9.00;99.90;;;;;;4987682;28;20480;-64
2023/01/13 01:37:06;;;;;;;18.02;3.30;;;9.10;99.90;;;;;;4992692;28;21140;-65
2023/01/13 01:39:31;;;;;;;21.50;3.47;;;9.10;99.90;;;;;;4972600;28;20038;-64
2023/01/13 01:44:41;;;;;;;22.67;3.63;;;9.20;99.90;;;;;;4991136;28;20222;-65
2023/01/13 01:47:13;;;;;;;18.23;3.47;;;9.20;99.90;;;;;;4994008;28;20161;-65
2023/01/13 01:49:39;;;;;;;31.50;4.20;;;9.10;99.90;;;;;;4985076;28;20109;-65
2023/01/13 01:52:12;;;;;;;25.73;4.07;;;9.10;99.90;;;;;;4982390;28;20038;-65
2023/01/13 01:54:50;;;;;;;24.77;4.00;;;9.00;99.90;;;;;;4984479;28;20398;-64
2023/01/13 01:57:21;;;;;;;32.33;4.18;;;8.90;99.90;;;;;;4984809;28;21184;-65
2023/01/13 01:59:48;;;;;;;20.60;3.97;;;9.00;99.90;;;;;;4992005;28;20413;-64
2023/01/13 02:02:13;;;;;;;31.02;4.95;;;8.90;99.90;;;;;;4987435;28;20481;-64
2023/01/13 02:04:49;;;;;;;21.88;4.25;;;8.90;99.90;;;;;;4991711;28;20113;-64
2023/01/13 02:07:21;;;;;;;24.42;4.18;;;8.80;99.90;;;;;;4980244;28;20109;-64
2023/01/13 02:09:48;;;;;;;22.23;4.40;;;8.80;99.90;;;;;;4986695;28;20042;-65
2023/01/13 02:12:31;;;;;;;21.52;3.80;;;8.70;99.90;;;;;;4985628;28;20039;-64
2023/01/13 02:15:08;;;;;;;25.23;4.13;;;8.60;99.90;;;;;;4971336;28;20031;-64
2023/01/13 02:17:52;;;;;;;28.33;4.35;;;8.50;99.90;;;;;;4982720;28;20505;-64
2023/01/13 02:20:41;;;;;;;19.20;3.47;;;8.50;99.90;;;;;;4985014;28;20038;-64
2023/01/13 02:26:06;;;;;;;22.67;4.07;;;8.40;99.90;;;;;;4988516;28;20168;-65
2023/01/13 02:31:41;;;;;;;30.17;4.78;;;8.30;99.90;;;;;;4986854;28;20129;-64
2023/01/13 02:34:16;;;;;;;22.40;4.35;;;8.30;99.90;;;;;;4986667;28;20045;-65
2023/01/13 02:36:55;;;;;;;23.02;4.20;;;8.40;99.90;;;;;;4990919;28;20113;-65
2023/01/13 02:39:49;;;;;;;17.70;3.30;;;8.40;99.90;;;;;;4990915;28;20050;-65
2023/01/13 02:45:32;;;;;;;25.77;4.30;;;8.30;99.90;;;;;;4980744;28;20085;-65
2023/01/13 02:48:00;;;;;;;22.58;4.05;;;8.30;99.90;;;;;;4980765;28;20498;-65
2023/01/13 02:50:39;;;;;;;20.77;3.92;;;8.20;99.90;;;;;;4979063;28;20053;-65
2023/01/13 02:53:16;;;;;;;21.02;3.80;;;8.20;99.90;;;;;;4984088;28;20089;-64
2023/01/13 02:55:46;;;;;;;29.30;4.38;;;8.20;99.90;;;;;;4991970;28;20124;-64
2023/01/13 02:58:17;;;;;;;25.63;4.13;;;8.10;99.90;;;;;;4977978;28;20058;-64
2023/01/13 03:00:44;;;;;;;22.73;4.35;;;8.10;99.90;;;;;;4985053;28;20027;-64
2023/01/13 03:03:10;;;;;;;25.00;4.28;;;8.10;99.90;;;;;;4987718;28;20034;-64
2023/01/13 03:05:36;;;;;;;24.98;4.00;;;8.10;99.90;;;;;;4982851;28;20134;-64
2023/01/13 03:08:22;;;;;;;32.90;4.30;;;8.10;99.90;;;;;;4986827;28;20049;-64
2023/01/13 03:11:11;;;;;;;21.98;3.80;;;8.10;99.90;;;;;;4983758;28;20042;-65
2023/01/13 03:13:51;;;;;;;26.23;4.53;;;8.20;99.90;;;;;;4989449;28;20050;-64
2023/01/13 03:16:44;;;;;;;21.88;3.97;;;8.20;99.90;;;;;;4988577;28;20046;-64
2023/01/13 03:19:24;;;;;;;25.73;4.68;;;8.40;99.90;;;;;;4989167;28;20126;-64
2023/01/13 03:21:49;;;;;;;23.30;4.80;;;8.40;99.90;;;;;;4994211;28;20588;-64
2023/01/13 03:24:21;;;;;;;28.67;5.00;;;8.40;99.90;;;;;;4987759;28;20049;-64
2023/01/13 03:26:49;;;;;;;25.42;4.30;;;8.50;99.90;;;;;;4989368;28;20043;-63
2023/01/13 03:29:34;;;;;;;24.58;4.28;;;8.50;99.90;;;;;;4987847;28;20112;-62
2023/01/13 03:32:23;;;;;;;32.83;4.93;;;8.60;99.90;;;;;;4977293;28;20040;-64
2023/01/13 03:34:58;;;;;;;24.23;4.03;;;8.60;99.90;;;;;;4989062;28;20034;-64
2023/01/13 03:37:30;;;;;;;33.45;4.95;;;8.60;99.90;;;;;;4990497;28;20055;-63
2023/01/13 03:40:05;;;;;;;24.60;4.88;;;8.60;99.90;;;;;;4975927;28;20130;-64
2023/01/13 03:42:33;;;;;;;25.98;4.55;;;8.60;99.90;;;;;;4988388;28;20057;-64
2023/01/13 03:45:01;;;;;;;24.30;4.30;;;8.70;99.90;;;;;;4988222;28;20039;-62
2023/01/13 03:47:33;;;;;;;25.92;4.20;;;8.70;99.90;;;;;;4987580;28;20057;-64
2023/01/13 03:50:21;;;;;;;26.98;4.53;;;8.70;99.90;;;;;;4989402;28;20049;-63
2023/01/13 03:52:52;;;;;;;25.92;4.22;;;8.70;99.90;;;;;;4985208;28;20034;-64
2023/01/13 03:55:24;;;;;;;29.48;4.47;;;8.70;99.90;;;;;;4984910;28;20075;-64
2023/01/13 03:58:01;;;;;;;27.10;4.80;;;8.70;99.90;;;;;;4982318;28;20556;-63
2023/01/13 04:00:33;;;;;;;28.13;4.05;;;8.70;99.90;;;;;;4991678;28;20038;-62
2023/01/13 04:03:25;;;;;;;29.65;4.55;;;8.70;99.90;;;;;;4982096;28;20027;-64
2023/01/13 04:05:58;;;;;;;23.90;4.38;;;8.60;99.90;;;;;;4982184;28;20034;-64
2023/01/13 04:08:26;;;;;;;24.38;3.70;;;8.60;99.90;;;;;;4993425;28;20042;-64
2023/01/13 04:11:06;;;;;;;21.73;3.88;;;8.50;99.90;;;;;;4993853;28;20042;-64
2023/01/13 04:13:36;;;;;;;27.40;4.78;;;8.50;99.90;;;;;;4988543;28;20426;-64
2023/01/13 04:16:04;;;;;;;27.23;3.95;;;8.50;99.90;;;;;;4987382;28;20104;-64
2023/01/13 04:18:30;;;;;;;33.70;4.80;;;8.50;99.90;;;;;;4995498;28;20117;-62
2023/01/13 04:20:58;;;;;;;28.58;4.05;;;8.50;99.90;;;;;;4983692;28;20245;-63
2023/01/13 04:23:24;;;;;;;27.02;5.70;;;8.50;99.90;;;;;;4990080;28;20037;-63
2023/01/13 04:25:50;;;;;;;28.70;4.28;;;8.50;99.90;;;;;;4994500;28;20034;-64
2023/01/13 04:28:17;;;;;;;27.08;3.80;;;8.50;99.90;;;;;;4984299;28;20057;-63
2023/01/13 04:30:43;;;;;;;33.30;4.88;;;8.60;99.90;;;;;;4984130;28;20053;-63
2023/01/13 04:33:10;;;;;;;28.58;3.95;;;8.60;99.90;;;;;;4993316;28;20049;-64
2023/01/13 04:35:36;;;;;;;21.38;3.85;;;8.60;99.90;;;;;;4994937;28;20050;-63
2023/01/13 04:38:12;;;;;;;28.33;4.95;;;8.70;99.90;;;;;;4982536;28;20039;-63
2023/01/13 04:40:38;;;;;;;29.05;5.03;;;8.60;99.90;;;;;;4989534;28;20088;-64
2023/01/13 04:43:04;;;;;;;30.92;5.75;;;8.60;99.90;;;;;;4994849;28;20034;-62
2023/01/13 04:45:30;;;;;;;26.92;4.38;;;8.60;99.90;;;;;;4990632;28;20051;-62
2023/01/13 04:47:56;;;;;;;25.05;4.20;;;8.60;99.90;;;;;;4986242;28;20049;-64
2023/01/13 04:50:22;;;;;;;38.08;4.72;;;8.70;99.90;;;;;;4986634;28;20042;-64
2023/01/13 04:52:52;;;;;;;24.88;4.18;;;8.60;99.90;;;;;;4988672;28;20073;-64
2023/01/13 04:55:20;;;;;;;28.08;4.30;;;8.60;99.90;;;;;;4983459;28;20042;-63
2023/01/13 04:57:45;;;;;;;28.08;4.03;;;8.50;99.90;;;;;;4984624;28;20293;-64
2023/01/13 05:00:14;;;;;;;29.20;4.43;;;8.50;99.90;;;;;;4986785;28;20425;-65
2023/01/13 05:02:40;;;;;;;27.58;5.18;;;8.40;99.90;;;;;;4979824;28;20493;-64
2023/01/13 05:05:06;;;;;;;30.20;4.63;;;8.40;99.90;;;;;;4989234;28;20045;-63
2023/01/13 05:07:32;;;;;;;26.95;4.97;;;8.40;99.90;;;;;;4993256;28;20092;-64
2023/01/13 05:09:58;;;;;;;26.50;4.45;;;8.50;99.90;;;;;;4989178;28;20034;-64
2023/01/13 05:17:56;;;;;;;24.50;4.10;;;8.40;99.90;;;;;;4982342;28;20061;-64
2023/01/13 05:20:23;;;;;;;19.73;4.15;;;8.50;99.90;;;;;;4980054;28;20042;-64
2023/01/13 05:25:36;;;;;;;24.08;4.05;;;8.40;99.90;;;;;;4993032;28;20053;-64
2023/01/13 05:28:02;;;;;;;25.85;3.65;;;8.40;99.90;;;;;;4977571;28;20110;-64
2023/01/13 05:30:31;;;;;;;19.75;3.35;;;8.40;99.90;;;;;;4991201;28;20046;-64
2023/01/13 05:32:57;;;;;;;19.85;3.47;;;8.40;99.90;;;;;;4991148;28;20126;-64
2023/01/13 05:35:23;;;;;;;25.92;3.53;;;8.40;99.90;;;;;;4987600;28;20046;-64
2023/01/13 05:37:49;;;;;;;26.73;4.15;;;8.40;99.90;;;;;;4992963;28;20030;-64
2023/01/13 05:43:19;;;;;;;17.42;3.22;;;8.30;99.90;;;;;;4977311;28;20046;-63
2023/01/13 05:45:50;;;;;;;18.08;3.33;;;8.40;99.90;;;;;;4984076;28;20405;-63
2023/01/13 05:48:17;;;;;;;18.75;3.90;;;8.40;99.90;;;;;;4991801;28;20048;-64
2023/01/13 05:50:43;;;;;;;21.42;4.28;;;8.30;99.90;;;;;;4993497;28;20525;-62
2023/01/13 05:53:09;;;;;;;23.45;3.78;;;8.30;99.90;;;;;;4984180;28;20052;-64
2023/01/13 05:55:38;;;;;;;24.77;3.67;;;8.30;99.90;;;;;;4991579;28;20133;-64
2023/01/13 05:58:03;;;;;;;20.02;4.30;;;8.30;99.90;;;;;;4992372;28;20444;-63
2023/01/13 06:00:29;;;;;;;17.83;4.50;;;8.40;99.90;;;;;;4980853;28;20030;-64
2023/01/13 06:02:54;;;;;;;16.77;2.88;;;8.40;99.90;;;;;;4990499;28;20551;-64
2023/01/13 06:05:20;;;;;;;16.35;4.38;;;8.40;99.90;;;;;;4991759;28;20377;-63
2023/01/13 06:07:46;;;;;;;21.73;3.10;;;8.30;99.90;;;;;;4984347;28;20508;-63
2023/01/13 06:10:11;;;;;;;12.82;3.20;;;8.20;99.90;;;;;;4990405;28;20065;-63
2023/01/13 06:12:37;;;;;;;22.92;3.13;;;8.20;99.90;;;;;;4991544;28;20049;-64
2023/01/13 06:15:02;;;;;;;15.95;3.67;;;8.20;99.90;;;;;;4991768;28;20030;-65
2023/01/13 06:17:28;;;;;;;11.80;2.95;;;8.20;99.90;;;;;;4985192;28;20042;-64
2023/01/13 06:19:54;;;;;;;14.90;2.72;;;8.20;99.90;;;;;;4984127;28;20493;-63
2023/01/13 06:22:26;;;;;;;17.23;3.00;;;8.20;99.90;;;;;;4982658;28;20038;-64
2023/01/13 06:24:53;;;;;;;11.90;2.60;;;8.20;99.90;;;;;;4969082;28;20749;-64
2023/01/13 06:27:20;;;;;;;15.40;3.40;;;8.30;99.90;;;;;;4971629;28;20039;-64
2023/01/13 06:29:46;;;;;;;14.13;2.38;;;8.30;99.90;;;;;;4979746;28;20068;-64
2023/01/13 06:32:25;;;;;;;8.55;2.40;;;8.40;99.90;;;;;;4955913;28;20501;-63
2023/01/13 06:34:58;;;;;;;15.55;2.22;;;8.40;99.90;;;;;;4982024;28;20116;-64
2023/01/13 06:37:25;;;;;;;17.35;2.70;;;8.40;99.90;;;;;;4981433;28;20051;-64
2023/01/13 06:39:57;;;;;;;16.85;2.63;;;8.50;99.90;;;;;;4993046;28;20078;-64
2023/01/13 06:45:09;;;;;;;9.85;2.00;;;8.50;99.90;;;;;;4971152;28;20086;-65
2023/01/13 06:47:35;;;;;;;14.38;2.65;;;8.50;99.90;;;;;;4991422;28;20054;-64
2023/01/13 06:50:01;;;;;;;12.55;2.22;;;8.50;99.90;;;;;;4989755;28;20042;-64
2023/01/13 06:52:29;;;;;;;14.73;2.60;;;8.50;99.90;;;;;;4980459;28;20047;-65
2023/01/13 06:54:56;;;;;;;7.20;2.13;;;8.50;99.90;;;;;;4984039;28;20042;-65
2023/01/13 06:57:21;;;;;;;11.95;2.47;;;8.50;99.90;;;;;;4992571;28;20054;-65
2023/01/13 06:59:47;;;;;;;13.35;2.50;;;8.50;99.90;;;;;;4983852;28;20397;-65
2023/01/13 07:02:12;;;;;;;12.15;2.38;;;8.40;99.90;;;;;;4980231;28;20047;-64
2023/01/13 07:04:38;;;;;;;12.68;3.13;;;8.40;99.90;;;;;;4991533;28;20041;-65
2023/01/13 07:07:03;;;;;;;13.10;2.28;;;8.50;99.90;;;;;;4992210;28;20031;-64
2023/01/13 07:09:29;;;;;;;16.05;2.85;;;8.40;99.90;;;;;;4982836;28;20117;-65
2023/01/13 07:11:55;;;;;;;12.68;2.33;;;8.40;99.90;;;;;;4981991;28;20063;-65
2023/01/13 07:17:04;;;;;;;13.35;2.30;;;8.50;99.90;;;;;;4973725;28;20109;-65
2023/01/13 07:19:30;;;;;;;12.45;2.78;;;8.40;99.90;;;;;;4981725;28;20486;-64
2023/01/13 07:21:56;;;;;;;10.05;2.00;;;8.40;99.90;;;;;;4991959;28;20476;-64
2023/01/13 07:24:21;;;;;;;11.95;2.42;;;8.40;99.90;;;;;;4986841;28;20042;-63
2023/01/13 07:26:47;;;;;;;9.85;2.97;;;8.50;99.90;;;;;;4988123;28;20062;-63
2023/01/13 07:29:13;;;;;;;11.13;2.28;;;8.50;99.90;;;;;;4987954;28;20049;-63
2023/01/13 07:31:38;;;;;;;19.95;2.65;;;8.50;99.90;;;;;;4979919;28;20038;-63
2023/01/13 07:34:05;;;;;;;13.55;2.78;;;8.50;99.90;;;;;;4987010;28;20085;-65
2023/01/13 07:36:31;;;;;;;16.42;2.80;;;8.60;99.90;;;;;;4991414;28;20052;-63
2023/01/13 07:38:57;;;;;;;13.18;2.55;;;8.60;99.90;;;;;;4987381;28;20038;-64
2023/01/13 07:44:11;;;;;;;17.45;3.15;;;8.60;99.90;;;;;;4952574;28;20043;-65
2023/01/13 07:46:37;;;;;;;12.55;2.63;;;8.60;99.90;;;;;;4976691;28;20042;-64
2023/01/13 07:49:03;;;;;;;20.02;3.25;;;8.50;99.90;;;;;;4981832;28;20050;-65
2023/01/13 07:51:30;;;;;;;10.98;2.00;;;8.50;99.90;;;;;;4993617;28;20065;-65
2023/01/13 07:53:55;;;;;;;17.15;2.90;;;8.50;99.90;;;;;;4985348;28;20064;-65
2023/01/13 07:56:21;;;;;;;16.27;3.05;;;8.50;99.90;;;;;;4982748;28;20458;-64
2023/01/13 07:58:49;;;;;;;21.00;3.13;;;8.40;99.90;;;;;;4987402;28;20047;-65
2023/01/13 08:01:16;;;;;;;15.82;2.90;;;8.40;99.90;;;;;;4995418;28;20071;-64
2023/01/13 08:03:42;;;;;;;13.82;2.60;;;8.50;99.90;;;;;;4975887;28;20381;-64
2023/01/13 08:06:09;;;;;;;15.70;2.50;;;8.40;99.90;;;;;;4986548;28;20129;-65
2023/01/13 08:08:35;;;;;;;14.55;2.85;;;8.40;99.90;;;;;;4993208;28;20516;-64
2023/01/13 08:11:03;;;;;;;15.95;3.17;;;8.40;99.90;;;;;;4989236;28;20042;-64
2023/01/13 08:13:29;;;;;;;17.67;3.20;;;8.40;99.90;;;;;;4995496;28;20084;-64
2023/01/13 08:16:00;;;;;;;14.68;3.05;;;8.50;99.90;;;;;;4983834;28;20058;-64
2023/01/13 08:18:25;;;;;;;12.82;2.70;;;8.50;99.90;;;;;;4984750;28;20514;-64
2023/01/13 08:20:51;;;;;;;13.65;2.92;;;8.50;99.90;;;;;;4995307;28;20070;-65
2023/01/13 08:23:18;;;;;;;13.00;3.05;;;8.50;99.90;;;;;;4981849;28;20608;-64
2023/01/13 08:25:44;;;;;;;20.08;3.25;;;8.40;99.90;;;;;;4986661;28;20067;-63
2023/01/13 08:28:11;;;;;;;24.50;3.03;;;8.40;99.90;;;;;;4995452;28;20051;-63
2023/01/13 08:30:37;;;;;;;17.15;3.05;;;8.30;99.90;;;;;;4994455;28;20517;-65
2023/01/13 08:33:06;;;;;;;17.50;2.90;;;8.30;99.90;;;;;;4980283;28;20045;-62
2023/01/13 08:35:32;;;;;;;14.23;2.03;;;8.20;99.90;;;;;;4984755;28;20040;-63
2023/01/13 08:37:58;;;;;;;19.00;2.60;;;8.20;99.90;;;;;;4990500;28;20417;-63
2023/01/13 08:40:24;;;;;;;17.17;2.47;;;8.10;99.90;;;;;;4991712;28;20030;-63
2023/01/13 08:42:51;;;;;;;15.15;2.40;;;8.10;99.90;;;;;;4986560;28;20093;-62
2023/01/13 08:45:17;;;;;;;16.55;2.65;;;8.10;99.90;;;;;;4994647;28;20057;-63
2023/01/13 08:47:43;;;;;;;19.38;3.33;;;8.10;99.90;;;;;;4990523;28;20042;-62
2023/01/13 08:50:10;;;;;;;14.18;2.60;;;8.10;99.90;;;;;;4988218;28;20050;-61
2023/01/13 08:52:35;;;;;;;11.93;2.78;;;8.10;99.90;;;;;;4992800;28;20082;-62
2023/01/13 08:55:01;;;;;;;14.70;2.63;;;8.10;99.90;;;;;;4984165;28;20062;-63
2023/01/13 08:57:27;;;;;;;20.35;3.20;;;8.10;99.90;;;;;;4993108;28;20556;-63
2023/01/13 08:59:53;;;;;;;14.27;2.70;;;8.10;99.90;;;;;;4985730;28;20046;-65
2023/01/13 09:02:21;;;;;;;16.50;2.85;;;8.10;99.90;;;;;;4994220;28;20053;-63
2023/01/13 09:04:47;;;;;;;17.88;3.05;;;8.10;99.90;;;;;;4978346;28;20056;-63
2023/01/13 09:07:14;;;;;;;18.33;3.33;;;8.10;99.90;;;;;;4990059;28;20034;-63
2023/01/13 09:09:40;;;;;;;21.45;3.75;;;8.10;99.90;;;;;;4978589;28;20504;-63
2023/01/13 09:14:53;;;;;;;19.85;2.95;;;8.10;99.90;;;;;;4984255;28;20042;-64
2023/01/13 09:17:18;;;;;;;20.38;3.78;;;8.10;99.90;;;;;;4990636;28;20031;-65
2023/01/13 09:19:44;;;;;;;16.30;3.10;;;8.10;99.90;;;;;;4990671;28;20131;-62
2023/01/13 09:22:15;;;;;;;17.88;3.15;;;8.10;99.90;;;;;;4989399;28;20042;-62
2023/01/13 09:24:40;;;;;;;13.65;3.08;;;8.20;99.90;;;;;;4986072;28;20117;-62
2023/01/13 09:27:07;;;;;;;20.27;3.10;;;8.20;99.90;;;;;;4990787;28;20121;-63
2023/01/13 09:29:33;;;;;;;13.27;3.05;;;8.20;99.90;;;;;;4979142;28;20112;-62
2023/01/13 09:31:58;;;;;;;15.07;2.83;;;8.30;99.90;;;;;;4986520;28;20067;-62
2023/01/13 09:37:08;;;;;;;13.82;2.67;;;8.20;99.90;;;;;;4988017;28;20098;-62
2023/01/13 09:39:35;;;;;;;12.00;2.38;;;8.20;99.90;;;;;;4986237;28;20035;-64
2023/01/13 09:45:11;;;;;;;18.38;3.30;;;8.40;99.90;;;;;;4986097;28;20077;-64
2023/01/13 09:47:55;;;;;;;21.42;2.90;;;8.40;99.90;;;;;;4977353;28;20229;-63
2023/01/13 09:50:33;;;;;;;14.80;3.08;;;8.50;99.90;;;;;;4985452;28;20053;-63
2023/01/13 09:52:59;;;;;;;20.45;3.28;;;8.50;99.90;;;;;;4993798;28;20069;-64
2023/01/13 09:55:35;;;;;;;15.90;3.25;;;8.50;99.90;;;;;;4985278;28;20078;-63
2023/01/13 09:58:21;;;;;;;23.23;3.92;;;8.50;99.90;;;;;;4987016;28;20042;-63
2023/01/13 10:00:59;;;;;;;19.48;3.65;;;8.50;99.90;;;;;;4981180;28;20050;-63
2023/01/13 10:03:29;;;;;;;14.57;3.08;;;8.50;99.90;;;;;;4973992;28;20034;-64
2023/01/13 10:06:10;;;;;;;15.93;2.72;;;8.60;99.90;;;;;;4973158;28;20113;-64
2023/01/13 10:08:37;;;;;;;;;;;8.60;99.90;;;;;;4983548;28;20042;-64
2023/01/13 10:14:09;;;;;;;18.77;2.92;;;8.60;99.90;;;;;;4979336;28;20054;-63
2023/01/13 10:16:47;;;;;;;14.88;3.20;;;8.60;99.90;;;;;;4983004;28;20046;-65
2023/01/13 10:19:32;;;;;;;15.13;3.15;;;8.60;99.90;;;;;;4976275;28;20136;-63
2023/01/13 10:22:19;;;;;;;20.33;2.78;;;8.50;99.90;;;;;;4979207;28;20652;-64
2023/01/13 10:24:50;;;;;;;12.30;2.80;;;8.50;99.90;;;;;;4990917;28;20039;-64
2023/01/13 10:27:38;;;;;;;15.95;3.10;;;8.50;99.90;;;;;;4983418;28;20093;-64
2023/01/13 10:30:31;;;;;;;21.45;3.33;;;8.40;99.90;;;;;;4980948;28;20501;-64
2023/01/13 10:33:00;;;;;;;21.63;3.42;;;8.40;99.90;;;;;;4986171;28;20084;-63
2023/01/13 10:35:49;;;;;;;21.77;3.45;;;8.40;99.90;;;;;;4982055;28;20039;-64
2023/01/13 10:38:22;;;;;;;22.83;3.00;;;8.40;99.90;;;;;;4973281;28;20047;-63
2023/01/13 10:40:51;;;;;;;17.20;3.67;;;8.50;99.90;;;;;;4984508;28;20064;-64
2023/01/13 10:43:16;;;;;;;18.25;3.25;;;8.50;99.90;;;;;;4984379;28;20532;-64
2023/01/13 10:46:01;;;;;;;17.48;3.20;;;8.60;99.90;;;;;;4992662;28;20038;-65
2023/01/13 10:48:42;;;;;;;17.70;2.92;;;8.60;99.90;;;;;;4984621;28;20046;-62
2023/01/13 10:51:27;;;;;;;18.42;2.85;;;8.60;99.90;;;;;;4980082;28;20043;-63
2023/01/13 10:54:00;;;;;;;15.27;3.47;;;8.50;99.90;;;;;;4983753;28;20121;-63
2023/01/13 10:56:32;;;;;;;18.98;3.67;;;8.50;99.90;;;;;;4978815;28;20502;-63
2023/01/13 10:59:27;;;;;;;15.55;2.75;;;8.50;99.90;;;;;;4983390;28;20047;-62
2023/01/13 11:02:30;;;;;;;15.02;3.20;;;8.50;99.90;;;;;;4985054;28;20034;-62
2023/01/13 11:04:56;;;;;;;19.35;3.45;;;8.50;99.90;;;;;;4985329;28;20378;-62
2023/01/13 11:07:40;;;;;;;18.25;3.15;;;8.50;99.90;;;;;;4980835;28;20046;-62
2023/01/13 11:10:20;;;;;;;17.58;3.20;;;8.50;99.90;;;;;;4978565;28;20041;-62
2023/01/13 11:13:10;;;;;;;18.10;2.83;;;8.50;99.90;;;;;;4980196;28;20475;-62
2023/01/13 11:16:01;;;;;;;18.33;3.50;;;8.60;99.90;;;;;;4970114;28;20057;-61
2023/01/13 11:19:01;;;;;;;16.43;3.53;;;8.60;99.90;;;;;;4989696;28;20042;-62
2023/01/13 11:22:11;;;;;;;20.98;3.25;;;8.60;99.90;;;;;;4980298;28;20267;-62
2023/01/13 11:24:40;;;;;;;16.45;3.38;;;8.70;99.90;;;;;;4879525;29;20132;-63
2023/01/13 11:27:20;;;;;;;21.05;3.30;;;8.60;99.90;;;;;;4968214;28;20051;-62
2023/01/13 11:30:00;;;;;;;20.92;3.70;;;8.60;99.90;;;;;;4974259;28;20046;-62
2023/01/13 11:32:29;;;;;;;19.23;3.97;;;8.60;99.90;;;;;;4978367;28;20080;-62
2023/01/13 11:35:00;;;;;;;21.50;3.30;;;8.60;99.90;;;;;;4981740;28;20478;-61
2023/01/13 11:37:39;;;;;;;16.10;3.22;;;8.70;99.90;;;;;;4981943;28;20056;-62
2023/01/13 11:40:23;;;;;;;18.05;3.10;;;8.70;99.90;;;;;;4972446;28;20398;-64
2023/01/13 11:43:00;;;;;;;13.52;2.90;;;8.70;99.90;;;;;;4965796;28;20050;-63
2023/01/13 11:45:31;;;;;;;14.25;3.20;;;8.70;99.90;;;;;;4975489;28;20062;-63
2023/01/13 11:48:00;;;;;;;19.27;2.47;;;8.70;99.90;;;;;;4983387;28;20046;-64
2023/01/13 11:50:46;;;;;;;16.90;3.15;;;8.60;99.90;;;;;;4991107;28;20408;-64
2023/01/13 11:53:33;;;;;;;26.02;4.38;;;8.60;99.90;;;;;;4987951;28;20038;-64
2023/01/13 11:56:04;;;;;;;18.70;3.13;;;8.60;99.90;;;;;;4980174;28;20038;-64
2023/01/13 11:58:30;;;;;;;21.33;4.20;;;8.60;99.90;;;;;;4985547;28;20039;-63
2023/01/13 12:01:16;;;;;;;19.95;3.22;;;8.60;99.90;;;;;;4990563;28;20050;-63
2023/01/13 12:04:13;;;;;;;19.83;3.10;;;8.70;99.90;;;;;;4981000;28;20510;-63
2023/01/13 12:06:40;;;;;;;15.07;3.00;;;8.70;99.90;;;;;;4979842;28;20082;-63
2023/01/13 12:09:37;;;;;;;24.27;3.35;;;8.80;99.90;;;;;;4985080;28;20382;-64
2023/01/13 12:12:18;;;;;;;22.60;3.45;;;8.80;99.90;;;;;;4972183;28;20058;-64
2023/01/13 12:15:14;;;;;;;16.40;2.90;;;8.80;99.90;;;;;;4975106;28;20047;-63
2023/01/13 12:17:59;;;;;;;14.88;2.95;;;8.80;99.90;;;;;;4979159;28;20042;-65
2023/01/13 12:20:39;;;;;;;17.55;2.92;;;8.80;99.90;;;;;;4975557;28;20506;-64
2023/01/13 12:23:20;;;;;;;17.20;3.38;;;8.80;99.90;;;;;;4973644;28;20113;-64
2023/01/13 12:25:51;;;;;;;18.33;3.37;;;8.80;99.90;;;;;;4984068;28;20061;-64
2023/01/13 12:28:31;;;;;;;20.25;3.35;;;8.80;99.90;;;;;;4984886;28;20560;-64
2023/01/13 12:31:01;;;;;;;20.08;3.17;;;8.80;99.90;;;;;;4975426;28;20530;-64
2023/01/13 12:33:51;;;;;;;23.48;4.20;;;8.80;99.90;;;;;;4981923;28;20038;-64
2023/01/13 12:36:30;;;;;;;15.52;3.45;;;8.80;99.90;;;;;;4996108;28;20424;-64
2023/01/13 12:39:20;;;;;;;14.20;2.30;;;8.80;99.90;;;;;;4994712;28;20050;-64
2023/01/13 12:45:19;;;;;;;18.08;2.92;;;8.80;99.90;;;;;;4987270;28;20404;-64
2023/01/13 12:47:45;;;;;;;18.55;2.75;;;8.80;99.90;;;;;;4992862;28;20042;-64
2023/01/13 12:50:23;;;;;;;21.50;3.03;;;8.80;99.90;;;;;;4981684;28;20057;-64
2023/01/13 12:52:52;;;;;;;19.02;2.90;;;8.80;99.90;;;;;;4982914;28;20043;-64
2023/01/13 12:55:43;;;;;;;20.75;3.90;;;8.80;99.90;;;;;;4975177;28;20047;-63
2023/01/13 12:58:09;;;;;;;13.68;3.05;;;8.90;99.90;;;;;;4968580;28;20065;-63
2023/01/13 13:00:40;;;;;;;13.85;3.28;;;8.90;99.90;;;;;;4982517;28;20038;-63
2023/01/13 13:03:11;;;;;;;11.10;2.60;;;8.90;99.90;;;;;;4989110;28;20080;-63
2023/01/13 13:05:55;;;;;;;;;;;8.80;99.90;;;;;;4983346;28;20907;-63
2023/01/13 13:08:38;;;;;;;17.08;3.00;;;8.80;99.90;;;;;;4978461;28;19972;-63
2023/01/13 13:13:16;;;;;;;11.25;2.20;;;8.70;99.90;;;;;;4980267;28;20042;-63
2023/01/13 13:14:04;;;;;;;13.88;3.10;;;8.70;99.90;;;;;;4977811;28;20502;-63
2023/01/13 13:16:29;;;;;;;13.35;2.53;;;8.70;99.90;;;;;;4975974;28;20125;-63
2023/01/13 13:19:18;;;;;;;15.13;2.53;;;8.80;99.90;;;;;;4991321;28;20476;-63
2023/01/13 13:22:16;;;;;;;11.32;2.08;;;8.90;99.90;;;;;;4969727;28;20519;-63
2023/01/13 13:25:01;;;;;;;13.27;2.63;;;8.90;99.90;;;;;;4982264;28;20430;-63
2023/01/13 13:27:27;;;;;;;13.32;2.28;;;8.90;99.90;;;;;;4983998;28;20039;-65
2023/01/13 13:29:59;;;;;;;9.80;2.33;;;9.00;99.90;;;;;;4975709;28;20097;-64
2023/01/13 13:32:36;;;;;;;12.38;2.40;;;9.10;99.90;;;;;;4973599;28;20097;-64
2023/01/13 13:35:33;;;;;;;14.43;2.78;;;9.10;99.90;;;;;;4986163;28;20513;-64
2023/01/13 13:47:19;;;;;;;10.65;2.67;;;9.10;99.90;;;;;;4979327;28;20066;-65
2023/01/13 13:49:54;;;;;;;13.02;2.70;;;9.10;99.90;;;;;;4971545;28;20035;-64
2023/01/13 13:52:41;;;;;;;12.80;2.70;;;9.10;99.90;;;;;;4989189;28;20073;-64
2023/01/13 13:55:18;;;;;;;13.20;2.40;;;9.10;99.90;;;;;;4982616;28;20038;-64
2023/01/13 13:57:49;;;;;;;12.38;3.17;;;9.20;99.90;;;;;;4986792;28;20089;-64
2023/01/13 14:00:16;;;;;;;12.60;2.35;;;9.30;99.90;;;;;;4980132;28;20058;-64
2023/01/13 14:02:55;;;;;;;12.23;2.92;;;9.30;99.90;;;;;;4989740;28;20114;-65
2023/01/13 14:05:28;;;;;;;17.48;3.08;;;9.30;99.90;;;;;;4989007;28;20046;-65
2023/01/13 14:08:21;;;;;;;11.63;2.53;;;9.20;99.90;;;;;;4981750;28;20039;-65
2023/01/13 14:10:46;;;;;;;8.18;2.20;;;9.10;99.90;;;;;;4970268;28;20055;-65